createdAt,value
2018-01-01T00:01:22.573Z,6.90
2018-01-01T00:03:50.074Z,7.00
2018-01-01T00:06:18.363Z,6.90
2018-01-01T00:08:46.628Z,7.00
2018-01-01T00:11:14.920Z,7.10
2018-01-01T00:13:43.219Z,7.10
2018-01-01T00:16:10.720Z,7.10
2018-01-01T00:18:38.222Z,7.20
2018-01-01T00:21:05.744Z,7.20
2018-01-01T00:23:33.240Z,7.20
2018-01-01T00:26:00.764Z,7.20
2018-01-01T00:28:28.283Z,7.30
2018-01-01T00:30:55.783Z,7.40
2018-01-01T00:33:23.309Z,7.50
2018-01-01T00:35:50.811Z,7.40
2018-01-01T00:38:19.102Z,6.90
2018-01-01T00:40:47.368Z,6.60
2018-01-01T00:43:15.659Z,6.40
2018-01-01T00:45:43.928Z,6.30
2018-01-01T00:48:12.230Z,6.30
2018-01-01T00:50:39.727Z,6.20
2018-01-01T00:53:07.218Z,6.20
2018-01-01T00:55:35.506Z,6.30
2018-01-01T00:58:03.766Z,6.30
2018-01-01T01:00:32.050Z,6.30
2018-01-01T01:03:00.308Z,6.20
2018-01-01T01:05:27.835Z,6.20
2018-01-01T01:07:55.333Z,6.20
2018-01-01T01:10:23.626Z,6.20
2018-01-01T01:12:51.890Z,6.30
2018-01-01T01:15:20.182Z,6.30
2018-01-01T01:17:48.445Z,6.30
2018-01-01T01:20:16.746Z,6.40
2018-01-01T01:22:44.242Z,6.40
2018-01-01T01:25:11.739Z,6.50
2018-01-01T01:27:40.032Z,6.70
2018-01-01T01:30:07.551Z,6.70
2018-01-01T01:32:35.066Z,6.70
2018-01-01T01:35:02.559Z,6.90
2018-01-01T01:37:30.091Z,6.90
2018-01-01T01:39:57.595Z,7.00
2018-01-01T01:42:25.204Z,7.10
2018-01-01T01:44:52.729Z,7.10
2018-01-01T01:47:21.020Z,7.20
2018-01-01T01:49:49.282Z,7.20
2018-01-01T01:52:17.563Z,7.30
2018-01-01T01:54:45.849Z,7.30
2018-01-01T01:57:14.120Z,7.30
2018-01-01T01:59:42.424Z,7.30
2018-01-01T02:02:09.922Z,7.30
2018-01-01T02:04:37.445Z,7.30
2018-01-01T02:07:04.943Z,7.30
2018-01-01T02:09:32.466Z,7.40
2018-01-01T02:11:59.963Z,7.40
2018-01-01T02:14:27.578Z,7.40
2018-01-01T02:16:55.122Z,7.50
2018-01-01T02:19:22.658Z,7.60
2018-01-01T02:21:50.952Z,7.60
2018-01-01T02:24:19.238Z,7.60
2018-01-01T02:26:46.771Z,7.60
2018-01-01T02:29:15.038Z,7.50
2018-01-01T02:31:42.526Z,7.50
2018-01-01T02:34:10.051Z,7.50
2018-01-01T02:36:37.571Z,7.50
2018-01-01T02:39:05.077Z,7.50
2018-01-01T02:41:32.598Z,7.50
2018-01-01T02:44:00.138Z,7.50
2018-01-01T02:46:27.638Z,7.60
2018-01-01T02:48:55.139Z,7.60
2018-01-01T02:51:22.667Z,7.60
2018-01-01T02:53:50.162Z,7.60
2018-01-01T02:56:17.663Z,7.60
2018-01-01T02:58:45.203Z,7.60
2018-01-01T03:01:12.695Z,7.60
2018-01-01T03:03:40.195Z,7.60
2018-01-01T03:06:07.709Z,7.50
2018-01-01T03:08:35.207Z,7.50
2018-01-01T03:11:02.739Z,7.40
2018-01-01T03:13:30.237Z,7.40
2018-01-01T03:15:57.763Z,7.30
2018-01-01T03:18:26.028Z,7.20
2018-01-01T03:20:53.549Z,7.20
2018-01-01T03:23:21.047Z,7.20
2018-01-01T03:25:48.574Z,7.20
2018-01-01T03:28:16.066Z,7.10
2018-01-01T03:30:43.560Z,7.10
2018-01-01T03:33:11.079Z,7.00
2018-01-01T03:35:38.582Z,6.90
2018-01-01T03:38:06.103Z,6.90
2018-01-01T03:40:33.632Z,6.80
2018-01-01T03:43:01.126Z,6.80
2018-01-01T03:45:29.422Z,6.70
2018-01-01T03:47:57.685Z,6.60
2018-01-01T03:50:25.948Z,6.60
2018-01-01T03:52:53.486Z,6.60
2018-01-01T03:55:20.986Z,6.60
2018-01-01T03:57:49.251Z,6.50
2018-01-01T04:00:17.539Z,6.50
2018-01-01T04:02:45.806Z,6.40
2018-01-01T04:05:14.105Z,6.40
2018-01-01T04:07:41.613Z,6.40
2018-01-01T04:10:09.136Z,6.40
2018-01-01T04:12:36.630Z,6.50
2018-01-01T04:15:04.246Z,6.40
2018-01-01T04:17:31.743Z,6.30
2018-01-01T04:19:59.240Z,6.30
2018-01-01T04:22:27.522Z,6.20
2018-01-01T04:24:55.790Z,6.30
2018-01-01T04:27:24.080Z,6.30
2018-01-01T04:29:52.342Z,6.30
2018-01-01T04:32:20.631Z,6.30
2018-01-01T04:34:48.895Z,6.30
2018-01-01T04:37:17.183Z,6.20
2018-01-01T04:39:45.480Z,6.20
2018-01-01T04:42:12.987Z,6.20
2018-01-01T04:44:40.481Z,6.20
2018-01-01T04:47:08.778Z,6.20
2018-01-01T04:49:36.279Z,6.20
2018-01-01T04:52:03.807Z,6.20
2018-01-01T04:54:31.302Z,6.20
2018-01-01T04:56:58.791Z,6.10
2018-01-01T04:59:27.085Z,6.10
2018-01-01T05:01:54.587Z,6.10
2018-01-01T05:04:22.117Z,6.10
2018-01-01T05:06:49.614Z,6.10
2018-01-01T05:09:17.108Z,6.10
2018-01-01T05:11:44.628Z,6.10
2018-01-01T05:14:12.125Z,6.10
2018-01-01T05:16:39.642Z,6.20
2018-01-01T05:19:07.140Z,6.20
2018-01-01T05:21:35.423Z,6.00
2018-01-01T05:24:02.963Z,6.00
2018-01-01T05:26:31.222Z,6.00
2018-01-01T05:28:58.719Z,6.00
2018-01-01T05:31:26.231Z,6.00
2018-01-01T05:33:53.727Z,6.00
2018-01-01T05:36:22.010Z,5.90
2018-01-01T05:38:49.513Z,5.90
2018-01-01T05:41:17.035Z,6.00
2018-01-01T05:43:44.535Z,6.00
2018-01-01T05:46:12.070Z,6.00
2018-01-01T05:48:39.566Z,6.00
2018-01-01T05:51:07.072Z,6.00
2018-01-01T05:53:34.600Z,6.00
2018-01-01T05:56:02.900Z,6.10
2018-01-01T05:58:30.418Z,6.10
2018-01-01T06:00:57.916Z,6.20
2018-01-01T06:03:25.494Z,6.20
2018-01-01T06:05:53.039Z,6.20
2018-01-01T06:08:20.538Z,6.20
2018-01-01T06:10:48.065Z,6.10
2018-01-01T06:13:15.563Z,6.20
2018-01-01T06:15:43.080Z,6.10
2018-01-01T06:18:10.575Z,6.20
2018-01-01T06:20:38.105Z,6.20
2018-01-01T06:23:05.598Z,6.20
2018-01-01T06:25:33.093Z,6.20
2018-01-01T06:28:01.380Z,6.20
2018-01-01T06:30:28.871Z,6.20
2018-01-01T06:32:56.390Z,6.20
2018-01-01T06:35:24.655Z,6.20
2018-01-01T06:37:52.951Z,6.30
2018-01-01T06:40:20.448Z,6.20
2018-01-01T06:42:47.947Z,6.20
2018-01-01T06:45:16.234Z,6.20
2018-01-01T06:47:44.495Z,6.20
2018-01-01T06:50:12.784Z,6.20
2018-01-01T06:52:41.055Z,6.20
2018-01-01T06:55:09.349Z,6.20
2018-01-01T06:57:36.909Z,6.20
2018-01-01T07:00:04.363Z,6.20
2018-01-01T07:02:32.642Z,6.10
2018-01-01T07:05:00.158Z,6.10
2018-01-01T07:07:27.654Z,6.20
2018-01-01T07:09:55.947Z,6.10
2018-01-01T07:12:23.482Z,6.10
2018-01-01T07:14:51.744Z,6.20
2018-01-01T07:17:19.246Z,6.20
2018-01-01T07:19:46.771Z,6.20
2018-01-01T07:22:15.032Z,6.30
2018-01-01T07:24:42.554Z,6.20
2018-01-01T07:27:10.050Z,6.20
2018-01-01T07:29:37.572Z,6.20
2018-01-01T07:32:05.094Z,6.10
2018-01-01T07:34:33.355Z,6.10
2018-01-01T07:37:01.651Z,6.00
2018-01-01T07:39:29.942Z,6.00
2018-01-01T07:41:57.442Z,6.00
2018-01-01T07:44:24.967Z,6.00
2018-01-01T07:46:52.458Z,5.90
2018-01-01T07:49:19.982Z,5.90
2018-01-01T07:51:47.480Z,5.90
2018-01-01T07:54:14.976Z,5.80
2018-01-01T07:56:43.259Z,5.90
2018-01-01T07:59:10.781Z,5.90
2018-01-01T08:01:38.303Z,5.90
2018-01-01T08:04:05.818Z,5.80
2018-01-01T08:06:34.079Z,5.80
2018-01-01T08:09:01.596Z,5.80
2018-01-01T08:11:29.091Z,5.90
2018-01-01T08:13:56.620Z,5.90
2018-01-01T08:16:24.144Z,5.90
2018-01-01T08:18:52.426Z,5.90
2018-01-01T08:21:19.923Z,5.90
2018-01-01T08:23:47.474Z,5.70
2018-01-01T08:26:14.968Z,5.60
2018-01-01T08:28:42.475Z,5.50
2018-01-01T08:31:09.992Z,5.60
2018-01-01T08:33:37.492Z,5.50
2018-01-01T08:36:05.021Z,5.50
2018-01-01T08:38:33.292Z,5.30
2018-01-01T08:41:01.552Z,5.40
2018-01-01T08:43:29.075Z,5.40
2018-01-01T08:45:56.575Z,5.40
2018-01-01T08:48:24.882Z,5.40
2018-01-01T08:50:52.389Z,5.40
2018-01-01T08:53:19.911Z,5.50
2018-01-01T08:55:47.418Z,5.50
2018-01-01T08:58:14.935Z,5.50
2018-01-01T09:00:42.475Z,5.60
2018-01-01T09:03:10.738Z,5.80
2018-01-01T09:05:39.051Z,5.90
2018-01-01T09:08:06.541Z,5.80
2018-01-01T09:10:34.064Z,6.00
2018-01-01T09:13:01.566Z,6.00
2018-01-01T09:15:29.092Z,6.10
2018-01-01T09:17:56.607Z,6.10
2018-01-01T09:20:24.868Z,6.20
2018-01-01T09:22:52.387Z,6.20
2018-01-01T09:25:19.887Z,6.20
2018-01-01T09:27:47.402Z,6.30
2018-01-01T09:30:14.895Z,6.30
2018-01-01T09:32:42.418Z,6.30
2018-01-01T09:35:09.912Z,6.30
2018-01-01T09:37:37.477Z,6.30
2018-01-01T09:40:05.016Z,6.30
2018-01-01T09:42:32.515Z,6.30
2018-01-01T09:45:00.774Z,6.30
2018-01-01T09:47:28.306Z,6.30
2018-01-01T09:49:55.804Z,6.30
2018-01-01T09:52:24.062Z,6.30
2018-01-01T09:54:51.593Z,6.30
2018-01-01T09:57:19.108Z,6.40
2018-01-01T09:59:47.373Z,6.60
2018-01-01T10:02:15.662Z,6.50
2018-01-01T10:04:43.930Z,6.60
2018-01-01T10:07:12.219Z,6.60
2018-01-01T10:09:40.481Z,6.50
2018-01-01T10:12:08.894Z,6.60
2018-01-01T10:14:36.396Z,6.60
2018-01-01T10:17:03.894Z,6.60
2018-01-01T10:19:31.414Z,6.60
2018-01-01T10:21:58.938Z,6.70
2018-01-01T10:24:26.459Z,6.70
2018-01-01T10:26:54.725Z,6.80
2018-01-01T10:29:23.036Z,6.90
2018-01-01T10:31:50.536Z,6.90
2018-01-01T10:34:18.027Z,6.90
2018-01-01T10:36:46.315Z,6.90
2018-01-01T10:39:14.595Z,7.00
2018-01-01T10:41:42.114Z,7.00
2018-01-01T10:44:09.615Z,7.00
2018-01-01T10:46:37.146Z,7.10
2018-01-01T10:49:05.414Z,7.20
2018-01-01T10:51:32.937Z,7.10
2018-01-01T10:54:00.445Z,7.20
2018-01-01T10:56:28.736Z,7.30
2018-01-01T10:58:57.030Z,7.30
2018-01-01T11:01:24.527Z,7.30
2018-01-01T11:03:52.051Z,7.50
2018-01-01T11:06:19.551Z,7.50
2018-01-01T11:08:48.601Z,7.50
2018-01-01T11:11:16.104Z,7.50
2018-01-01T11:13:43.605Z,7.40
2018-01-01T11:16:11.131Z,7.40
2018-01-01T11:18:38.634Z,7.30
2018-01-01T11:21:06.155Z,7.30
2018-01-01T11:23:33.688Z,7.40
2018-01-01T11:26:01.235Z,7.40
2018-01-01T11:28:28.728Z,7.40
2018-01-01T11:30:56.229Z,7.40
2018-01-01T11:33:23.755Z,7.40
2018-01-01T11:35:52.022Z,7.50
2018-01-01T11:38:19.566Z,7.50
2018-01-01T11:40:47.063Z,7.50
2018-01-01T11:43:15.341Z,7.40
2018-01-01T11:45:43.626Z,7.50
2018-01-01T11:48:11.118Z,7.50
2018-01-01T11:50:38.641Z,7.40
2018-01-01T11:53:06.143Z,7.30
2018-01-01T11:55:33.672Z,7.30
2018-01-01T11:58:01.207Z,7.40
2018-01-01T12:00:34.480Z,7.30
2018-01-01T12:03:02.019Z,7.30
2018-01-01T12:05:30.283Z,7.30
2018-01-01T12:07:57.783Z,7.30
2018-01-01T12:10:26.075Z,7.40
2018-01-01T12:12:54.343Z,7.30
2018-01-01T12:15:22.628Z,7.40
2018-01-01T12:17:50.894Z,7.50
2018-01-01T12:20:19.222Z,7.40
2018-01-01T12:22:46.869Z,7.40
2018-01-01T12:25:14.367Z,7.50
2018-01-01T12:27:41.871Z,7.50
2018-01-01T12:30:09.391Z,7.50
2018-01-01T12:32:36.915Z,7.40
2018-01-01T12:35:04.440Z,7.50
2018-01-01T12:37:32.706Z,7.50
2018-01-01T12:40:01.011Z,7.50
2018-01-01T12:42:28.506Z,7.50
2018-01-01T12:44:56.136Z,7.60
2018-01-01T12:47:23.634Z,7.70
2018-01-01T12:49:51.134Z,7.60
2018-01-01T12:52:19.424Z,7.80
2018-01-01T12:54:46.931Z,7.80
2018-01-01T12:57:14.463Z,7.70
2018-01-01T12:59:41.958Z,7.80
2018-01-01T13:02:09.455Z,7.80
2018-01-01T13:04:36.984Z,7.80
2018-01-01T13:07:05.250Z,7.70
2018-01-01T13:09:32.779Z,7.80
2018-01-01T13:12:00.275Z,7.80
2018-01-01T13:14:27.796Z,7.80
2018-01-01T13:16:55.306Z,7.80
2018-01-01T13:19:23.608Z,7.70
2018-01-01T13:21:51.110Z,7.70
2018-01-01T13:24:18.607Z,7.70
2018-01-01T13:26:46.895Z,7.60
2018-01-01T13:29:14.400Z,7.60
2018-01-01T13:31:41.939Z,7.60
2018-01-01T13:34:09.436Z,7.70
2018-01-01T13:36:36.940Z,7.60
2018-01-01T13:39:04.469Z,7.60
2018-01-01T13:41:32.731Z,7.60
2018-01-01T13:44:00.265Z,7.50
2018-01-01T13:46:27.772Z,7.50
2018-01-01T13:48:56.349Z,7.40
2018-01-01T13:51:24.636Z,7.30
2018-01-01T13:53:52.184Z,7.30
2018-01-01T13:56:20.452Z,7.20
2018-01-01T13:58:48.719Z,7.20
2018-01-01T14:01:16.247Z,7.30
2018-01-01T14:03:43.767Z,7.20
2018-01-01T14:06:11.304Z,7.20
2018-01-01T14:08:39.599Z,7.30
2018-01-01T14:11:07.896Z,7.30
2018-01-01T14:13:35.444Z,7.30
2018-01-01T14:16:02.949Z,7.30
2018-01-01T14:18:30.444Z,7.30
2018-01-01T14:20:58.750Z,7.30
2018-01-01T14:23:26.249Z,7.30
2018-01-01T14:25:53.748Z,7.20
2018-01-01T14:28:22.037Z,7.30
2018-01-01T14:30:49.541Z,7.30
2018-01-01T14:33:17.064Z,7.20
2018-01-01T14:35:44.568Z,7.20
2018-01-01T14:38:12.095Z,7.20
2018-01-01T14:40:39.639Z,7.10
2018-01-01T14:43:07.145Z,7.10
2018-01-01T14:45:34.651Z,7.10
2018-01-01T14:48:02.186Z,7.20
2018-01-01T14:50:30.456Z,7.10
2018-01-01T14:52:58.720Z,7.00
2018-01-01T14:55:26.252Z,7.00
2018-01-01T14:57:54.514Z,6.90
2018-01-01T15:00:22.040Z,6.90
2018-01-01T15:02:50.306Z,6.90
2018-01-01T15:05:18.609Z,6.90
2018-01-01T15:07:46.107Z,6.90
2018-01-01T15:10:13.602Z,6.90
2018-01-01T15:12:41.896Z,6.80
2018-01-01T15:15:09.417Z,6.80
2018-01-01T15:17:36.944Z,6.70
2018-01-01T15:20:04.464Z,6.70
2018-01-01T15:22:32.726Z,6.70
2018-01-01T15:25:01.032Z,6.60
2018-01-01T15:27:28.538Z,6.60
2018-01-01T15:29:56.039Z,6.60
2018-01-01T15:32:23.569Z,6.60
2018-01-01T15:34:51.067Z,6.60
2018-01-01T15:37:18.608Z,6.50
2018-01-01T15:39:46.868Z,6.60
2018-01-01T15:42:14.365Z,6.60
2018-01-01T15:44:41.937Z,6.60
2018-01-01T15:47:10.205Z,6.50
2018-01-01T15:49:37.709Z,6.50
2018-01-01T15:52:05.235Z,6.50
2018-01-01T15:54:32.737Z,6.40
2018-01-01T15:57:00.271Z,6.40
2018-01-01T15:59:27.768Z,6.40
2018-01-01T16:01:56.059Z,6.30
2018-01-01T16:04:23.590Z,6.30
2018-01-01T16:06:51.090Z,6.40
2018-01-01T16:09:18.622Z,6.50
2018-01-01T16:11:46.893Z,6.30
2018-01-01T16:14:15.161Z,6.40
2018-01-01T16:16:42.688Z,6.40
2018-01-01T16:19:10.193Z,6.30
2018-01-01T16:21:38.482Z,6.30
2018-01-01T16:24:06.748Z,6.20
2018-01-01T16:26:35.036Z,6.20
2018-01-01T16:29:03.299Z,6.20
2018-01-01T16:31:31.591Z,6.10
2018-01-01T16:33:59.088Z,6.10
2018-01-01T16:36:26.615Z,6.10
2018-01-01T16:38:54.141Z,6.10
2018-01-01T16:41:21.651Z,6.10
2018-01-01T16:43:49.177Z,6.10
2018-01-01T16:46:17.468Z,6.00
2018-01-01T16:48:44.972Z,6.00
2018-01-01T16:51:12.502Z,6.00
2018-01-01T16:53:40.004Z,6.10
2018-01-01T16:56:07.528Z,6.00
2018-01-01T16:58:35.036Z,6.00
2018-01-01T17:01:03.354Z,5.90
2018-01-01T17:03:30.851Z,5.90
2018-01-01T17:05:58.355Z,6.00
2018-01-01T17:08:25.903Z,5.90
2018-01-01T17:10:54.178Z,5.90
2018-01-01T17:13:22.469Z,5.90
2018-01-01T17:15:49.983Z,5.90
2018-01-01T17:18:17.522Z,5.90
2018-01-01T17:20:45.027Z,5.90
2018-01-01T17:23:13.282Z,5.80
2018-01-01T17:25:40.811Z,5.80
2018-01-01T17:28:08.319Z,5.80
2018-01-01T17:30:36.609Z,5.70
2018-01-01T17:33:04.106Z,5.70
2018-01-01T17:35:31.624Z,5.80
2018-01-01T17:37:59.135Z,5.70
2018-01-01T17:40:26.662Z,5.60
2018-01-01T17:42:54.191Z,5.60
2018-01-01T17:45:22.463Z,5.70
2018-01-01T17:47:50.763Z,5.70
2018-01-01T17:50:18.380Z,5.70
2018-01-01T17:52:46.721Z,5.60
2018-01-01T17:55:14.224Z,5.60
2018-01-01T17:57:41.727Z,5.60
2018-01-01T18:00:09.265Z,5.50
2018-01-01T18:02:37.583Z,5.50
2018-01-01T18:05:05.111Z,5.40
2018-01-01T18:07:32.617Z,5.40
2018-01-01T18:10:00.146Z,5.30
2018-01-01T18:12:27.646Z,5.20
2018-01-01T18:14:55.176Z,5.20
2018-01-01T18:17:22.712Z,5.30
2018-01-01T18:19:50.216Z,5.30
2018-01-01T18:22:17.720Z,5.40
2018-01-01T18:24:46.007Z,5.40
2018-01-01T18:27:13.508Z,5.30
2018-01-01T18:29:41.047Z,5.30
2018-01-01T18:32:08.552Z,5.30
2018-01-01T18:34:36.828Z,5.30
2018-01-01T18:37:05.141Z,5.40
2018-01-01T18:39:32.648Z,5.40
2018-01-01T18:42:00.152Z,5.30
2018-01-01T18:44:27.637Z,5.30
2018-01-01T18:46:55.180Z,5.40
2018-01-01T18:49:22.708Z,5.40
2018-01-01T18:51:50.999Z,5.50
2018-01-01T18:54:18.526Z,5.40
2018-01-01T18:56:46.056Z,5.50
2018-01-01T18:59:13.580Z,5.60
2018-01-01T19:01:41.108Z,5.60
2018-01-01T19:04:08.611Z,5.50
2018-01-01T19:06:36.144Z,5.50
2018-01-01T19:09:04.416Z,5.60
2018-01-01T19:11:32.722Z,5.70
2018-01-01T19:14:00.220Z,5.70
2018-01-01T19:16:28.711Z,5.70
2018-01-01T19:18:56.251Z,5.70
2018-01-01T19:21:23.895Z,5.60
2018-01-01T19:23:51.400Z,5.70
2018-01-01T19:26:18.935Z,5.70
2018-01-01T19:28:46.463Z,5.70
2018-01-01T19:31:13.989Z,5.80
2018-01-01T19:33:42.287Z,5.80
2018-01-01T19:36:09.804Z,5.80
2018-01-01T19:38:37.336Z,5.80
2018-01-01T19:41:04.843Z,5.90
2018-01-01T19:43:33.127Z,5.90
2018-01-01T19:46:00.651Z,5.90
2018-01-01T19:48:28.147Z,5.90
2018-01-01T19:50:56.713Z,5.90
2018-01-01T19:53:25.018Z,5.90
2018-01-01T19:55:52.522Z,5.80
2018-01-01T19:58:20.032Z,5.80
2018-01-01T20:00:47.551Z,5.70
2018-01-01T20:03:15.048Z,5.70
2018-01-01T20:05:42.591Z,5.70
2018-01-01T20:10:42.604Z,5.60
2018-01-01T20:13:10.100Z,5.70
2018-01-01T20:15:37.603Z,5.70
2018-01-01T20:18:05.135Z,5.60
2018-01-01T20:20:48.539Z,5.50
2018-01-01T20:23:20.696Z,5.50
2018-01-01T20:25:48.297Z,5.50
2018-01-01T20:28:15.848Z,5.50
2018-01-01T20:30:43.356Z,5.50
2018-01-01T20:33:10.884Z,5.40
2018-01-01T20:35:38.408Z,5.40
2018-01-01T20:38:06.675Z,5.40
2018-01-01T20:40:34.203Z,5.40
2018-01-01T20:43:01.700Z,5.40
2018-01-01T20:45:29.235Z,5.40
2018-01-01T20:47:57.001Z,5.40
2018-01-01T20:50:24.505Z,5.40
2018-01-01T20:52:52.031Z,5.30
2018-01-01T20:55:20.319Z,5.20
2018-01-01T20:57:47.844Z,5.20
2018-01-01T21:00:15.359Z,5.30
2018-01-01T21:02:42.886Z,5.20
2018-01-01T21:05:11.155Z,5.30
2018-01-01T21:07:39.015Z,5.20
2018-01-01T21:10:06.519Z,5.20
2018-01-01T21:12:34.054Z,5.20
2018-01-01T21:15:02.483Z,5.10
2018-01-01T21:17:29.993Z,5.10
2018-01-01T21:19:58.283Z,5.20
2018-01-01T21:22:25.775Z,5.10
2018-01-01T21:24:53.294Z,5.10
2018-01-01T21:27:21.064Z,5.00
2018-01-01T21:29:48.599Z,5.00
2018-01-01T21:32:16.862Z,4.90
2018-01-01T21:34:44.369Z,4.90
2018-01-01T21:37:11.891Z,4.90
2018-01-01T21:39:40.155Z,4.90
2018-01-01T21:42:07.690Z,4.90
2018-01-01T21:44:35.191Z,4.90
2018-01-01T21:47:03.486Z,4.80
